sensor_id;sensor_type;location;lat;lon;timestamp;pressure;altitude;pressure_sealevel;temperature;humidity
67457;BME280;54319;52.038;4.640;2022-09-17T00:02:26;101514.19;;;10.34;94.47
67457;BME280;54319;52.038;4.640;2022-09-17T00:04:54;101528.16;;;10.33;94.77
67457;BME280;54319;52.038;4.640;2022-09-17T00:07:22;101526.41;;;10.35;95.62
67457;BME280;54319;52.038;4.640;2022-09-17T00:09:51;101514.19;;;10.32;95.83
67457;BME280;54319;52.038;4.640;2022-09-17T00:12:18;101520.31;;;10.35;96.13
67457;BME280;54319;52.038;4.640;2022-09-17T00:14:45;101516.81;;;10.37;96.55
67457;BME280;54319;52.038;4.640;2022-09-17T00:17:11;101512.47;;;10.39;96.66
67457;BME280;54319;52.038;4.640;2022-09-17T00:19:39;101517.69;;;10.39;96.31
67457;BME280;54319;52.038;4.640;2022-09-17T00:22:05;101515.06;;;10.39;95.94
67457;BME280;54319;52.038;4.640;2022-09-17T00:24:32;101524.69;;;10.39;95.80
67457;BME280;54319;52.038;4.640;2022-09-17T00:27:00;101531.69;;;10.41;95.27
67457;BME280;54319;52.038;4.640;2022-09-17T00:29:28;101532.53;;;10.43;95.14
67457;BME280;54319;52.038;4.640;2022-09-17T00:31:54;101531.66;;;10.46;94.63
67457;BME280;54319;52.038;4.640;2022-09-17T00:34:21;101541.28;;;10.48;94.49
67457;BME280;54319;52.038;4.640;2022-09-17T00:36:48;101543.91;;;10.55;94.18
67457;BME280;54319;52.038;4.640;2022-09-17T00:39:15;101546.50;;;10.58;93.56
67457;BME280;54319;52.038;4.640;2022-09-17T00:41:43;101538.66;;;10.58;93.04
67457;BME280;54319;52.038;4.640;2022-09-17T00:44:44;101536.06;;;10.56;91.61
67457;BME280;54319;52.038;4.640;2022-09-17T00:47:22;101521.19;;;10.53;92.07
67457;BME280;54319;52.038;4.640;2022-09-17T00:49:54;101529.94;;;10.52;92.51
67457;BME280;54319;52.038;4.640;2022-09-17T00:52:26;101542.16;;;10.47;92.37
67457;BME280;54319;52.038;4.640;2022-09-17T00:54:59;101526.44;;;10.46;92.66
67457;BME280;54319;52.038;4.640;2022-09-17T00:57:27;101528.19;;;10.39;93.36
67457;BME280;54319;52.038;4.640;2022-09-17T00:59:56;101518.56;;;10.35;92.74
67457;BME280;54319;52.038;4.640;2022-09-17T01:02:24;101510.72;;;10.30;92.40
67457;BME280;54319;52.038;4.640;2022-09-17T01:04:53;101509.81;;;10.25;91.26
67457;BME280;54319;52.038;4.640;2022-09-17T01:07:30;101509.78;;;10.21;90.04
67457;BME280;54319;52.038;4.640;2022-09-17T01:10:08;101509.78;;;10.18;90.57
67457;BME280;54319;52.038;4.640;2022-09-17T01:12:52;101505.41;;;10.13;91.70
67457;BME280;54319;52.038;4.640;2022-09-17T01:15:32;101517.63;;;10.07;91.56
67457;BME280;54319;52.038;4.640;2022-09-17T01:18:18;101523.72;;;10.03;92.08
67457;BME280;54319;52.038;4.640;2022-09-17T01:24:04;101520.19;;;9.90;93.04
67457;BME280;54319;52.038;4.640;2022-09-17T01:26:51;101518.44;;;9.84;93.43
67457;BME280;54319;52.038;4.640;2022-09-17T01:29:36;101524.53;;;9.79;93.20
67457;BME280;54319;52.038;4.640;2022-09-17T01:32:11;101523.66;;;9.74;93.65
67457;BME280;54319;52.038;4.640;2022-09-17T01:34:46;101534.09;;;9.69;94.34
67457;BME280;54319;52.038;4.640;2022-09-17T01:37:22;101541.06;;;9.62;95.01
67457;BME280;54319;52.038;4.640;2022-09-17T01:39:58;101534.06;;;9.55;95.81
67457;BME280;54319;52.038;4.640;2022-09-17T01:42:34;101534.91;;;9.49;96.45
67457;BME280;54319;52.038;4.640;2022-09-17T01:45:08;101527.00;;;9.42;96.81
67457;BME280;54319;52.038;4.640;2022-09-17T01:47:41;101533.09;;;9.36;97.17
67457;BME280;54319;52.038;4.640;2022-09-17T01:50:12;101538.31;;;9.32;97.63
67457;BME280;54319;52.038;4.640;2022-09-17T01:52:43;101541.75;;;9.27;98.10
67457;BME280;54319;52.038;4.640;2022-09-17T01:55:14;101542.59;;;9.23;98.64
67457;BME280;54319;52.038;4.640;2022-09-17T01:57:46;101537.38;;;9.20;98.96
67457;BME280;54319;52.038;4.640;2022-09-17T02:00:14;101540.84;;;9.18;99.34
67457;BME280;54319;52.038;4.640;2022-09-17T02:02:49;101542.59;;;9.19;99.56
67457;BME280;54319;52.038;4.640;2022-09-17T02:05:22;101559.16;;;9.21;100.00
67457;BME280;54319;52.038;4.640;2022-09-17T02:07:51;101578.38;;;9.27;100.00
67457;BME280;54319;52.038;4.640;2022-09-17T02:10:23;101571.44;;;9.31;100.00
67457;BME280;54319;52.038;4.640;2022-09-17T02:13:01;101560.13;;;9.37;98.97
67457;BME280;54319;52.038;4.640;2022-09-17T02:15:33;101548.84;;;9.47;98.59
67457;BME280;54319;52.038;4.640;2022-09-17T02:18:06;101548.88;;;9.56;98.51
67457;BME280;54319;52.038;4.640;2022-09-17T02:20:41;101548.94;;;9.64;97.84
67457;BME280;54319;52.038;4.640;2022-09-17T02:23:13;101549.78;;;9.66;97.47
67457;BME280;54319;52.038;4.640;2022-09-17T02:25:47;101548.03;;;9.68;97.21
67457;BME280;54319;52.038;4.640;2022-09-17T02:28:19;101541.94;;;9.64;97.05
67457;BME280;54319;52.038;4.640;2022-09-17T02:30:49;101546.28;;;9.61;97.40
67457;BME280;54319;52.038;4.640;2022-09-17T02:33:21;101546.25;;;9.56;97.33
67457;BME280;54319;52.038;4.640;2022-09-17T02:35:48;101542.78;;;9.56;97.50
67457;BME280;54319;52.038;4.640;2022-09-17T02:38:20;101547.13;;;9.54;97.01
67457;BME280;54319;52.038;4.640;2022-09-17T02:40:50;101554.09;;;9.53;96.82
67457;BME280;54319;52.038;4.640;2022-09-17T02:43:25;101569.81;;;9.53;97.51
67457;BME280;54319;52.038;4.640;2022-09-17T02:46:07;101569.81;;;9.56;97.60
67457;BME280;54319;52.038;4.640;2022-09-17T02:49:03;101563.72;;;9.56;97.33
67457;BME280;54319;52.038;4.640;2022-09-17T02:51:43;101562.84;;;9.63;94.51
67457;BME280;54319;52.038;4.640;2022-09-17T02:54:16;101558.53;;;9.74;90.94
67457;BME280;54319;52.038;4.640;2022-09-17T02:56:51;101566.44;;;9.82;89.59
67457;BME280;54319;52.038;4.640;2022-09-17T02:59:25;101553.34;;;9.85;88.88
67457;BME280;54319;52.038;4.640;2022-09-17T03:01:57;101559.47;;;9.87;88.39
67457;BME280;54319;52.038;4.640;2022-09-17T03:04:29;101563.81;;;9.88;87.33
67457;BME280;54319;52.038;4.640;2022-09-17T03:06:56;101560.34;;;9.90;86.82
67457;BME280;54319;52.038;4.640;2022-09-17T03:09:23;101549.88;;;9.97;85.66
67457;BME280;54319;52.038;4.640;2022-09-17T03:11:50;101553.38;;;10.00;86.57
67457;BME280;54319;52.038;4.640;2022-09-17T03:14:17;101539.44;;;10.01;86.89
67457;BME280;54319;52.038;4.640;2022-09-17T03:16:45;101545.56;;;10.08;85.83
67457;BME280;54319;52.038;4.640;2022-09-17T03:19:11;101549.06;;;10.18;86.31
67457;BME280;54319;52.038;4.640;2022-09-17T03:21:41;101573.59;;;10.32;85.66
67457;BME280;54319;52.038;4.640;2022-09-17T03:24:08;101572.72;;;10.35;88.41
67457;BME280;54319;52.038;4.640;2022-09-17T03:26:36;101562.22;;;10.36;89.14
67457;BME280;54319;52.038;4.640;2022-09-17T03:29:02;101554.38;;;10.30;90.09
67457;BME280;54319;52.038;4.640;2022-09-17T03:31:30;101563.91;;;10.22;91.96
67457;BME280;54319;52.038;4.640;2022-09-17T03:33:57;101556.03;;;10.16;93.18
67457;BME280;54319;52.038;4.640;2022-09-17T03:36:24;101546.44;;;10.11;93.48
67457;BME280;54319;52.038;4.640;2022-09-17T03:38:54;101549.91;;;10.09;93.96
67457;BME280;54319;52.038;4.640;2022-09-17T03:41:21;101548.16;;;10.09;93.64
67457;BME280;54319;52.038;4.640;2022-09-17T03:43:50;101549.06;;;10.15;93.32
67457;BME280;54319;52.038;4.640;2022-09-17T03:46:18;101547.31;;;10.20;92.71
67457;BME280;54319;52.038;4.640;2022-09-17T03:48:45;101541.22;;;10.24;91.91
67457;BME280;54319;52.038;4.640;2022-09-17T03:51:14;101539.47;;;10.20;92.44
67457;BME280;54319;52.038;4.640;2022-09-17T03:53:40;101541.22;;;10.18;91.84
67457;BME280;54319;52.038;4.640;2022-09-17T03:56:08;101542.94;;;10.06;91.48
67457;BME280;54319;52.038;4.640;2022-09-17T03:58:35;101548.16;;;10.02;90.38
67457;BME280;54319;52.038;4.640;2022-09-17T04:01:03;101542.91;;;9.96;89.68
67457;BME280;54319;52.038;4.640;2022-09-17T04:03:30;101549.03;;;9.99;88.94
67457;BME280;54319;52.038;4.640;2022-09-17T04:05:58;101555.16;;;10.06;88.46
67457;BME280;54319;52.038;4.640;2022-09-17T04:08:25;101550.78;;;10.02;89.24
67457;BME280;54319;52.038;4.640;2022-09-17T04:10:52;101562.13;;;9.98;89.97
67457;BME280;54319;52.038;4.640;2022-09-17T04:13:23;101566.47;;;9.91;91.66
67457;BME280;54319;52.038;4.640;2022-09-17T04:15:50;101562.94;;;9.83;92.75
67457;BME280;54319;52.038;4.640;2022-09-17T04:18:17;101561.16;;;9.76;93.52
67457;BME280;54319;52.038;4.640;2022-09-17T04:20:44;101568.09;;;9.67;94.28
67457;BME280;54319;52.038;4.640;2022-09-17T04:23:11;101574.19;;;9.59;94.87
67457;BME280;54319;52.038;4.640;2022-09-17T04:25:38;101569.78;;;9.52;95.34
67457;BME280;54319;52.038;4.640;2022-09-17T04:28:05;101568.91;;;9.46;95.99
67457;BME280;54319;52.038;4.640;2022-09-17T04:30:34;101565.38;;;9.40;96.51
67457;BME280;54319;52.038;4.640;2022-09-17T04:33:01;101562.72;;;9.37;97.04
67457;BME280;54319;52.038;4.640;2022-09-17T04:35:28;101564.47;;;9.32;97.41
67457;BME280;54319;52.038;4.640;2022-09-17T04:37:55;101569.66;;;9.28;97.19
67457;BME280;54319;52.038;4.640;2022-09-17T04:40:25;101591.47;;;9.29;97.06
67457;BME280;54319;52.038;4.640;2022-09-17T04:42:52;101598.50;;;9.38;95.70
67457;BME280;54319;52.038;4.640;2022-09-17T04:45:19;101612.56;;;9.60;94.15
67457;BME280;54319;52.038;4.640;2022-09-17T04:47:48;101603.91;;;9.68;95.24
67457;BME280;54319;52.038;4.640;2022-09-17T04:50:16;101605.63;;;9.69;95.72
67457;BME280;54319;52.038;4.640;2022-09-17T04:52:43;101601.25;;;9.65;95.61
67457;BME280;54319;52.038;4.640;2022-09-17T04:55:11;101593.38;;;9.61;95.29
67457;BME280;54319;52.038;4.640;2022-09-17T04:57:38;101589.88;;;9.56;95.56
67457;BME280;54319;52.038;4.640;2022-09-17T05:00:12;101599.44;;;9.52;93.38
67457;BME280;54319;52.038;4.640;2022-09-17T05:02:39;101589.84;;;9.49;93.15
67457;BME280;54319;52.038;4.640;2022-09-17T05:05:11;101593.34;;;9.48;93.05
67457;BME280;54319;52.038;4.640;2022-09-17T05:07:38;101592.38;;;9.42;92.99
67457;BME280;54319;52.038;4.640;2022-09-17T05:10:06;101591.50;;;9.37;94.01
67457;BME280;54319;52.038;4.640;2022-09-17T05:12:33;101583.63;;;9.30;94.74
67457;BME280;54319;52.038;4.640;2022-09-17T05:15:00;101585.34;;;9.28;94.86
67457;BME280;54319;52.038;4.640;2022-09-17T05:17:27;101578.38;;;9.27;95.01
67457;BME280;54319;52.038;4.640;2022-09-17T05:19:54;101574.88;;;9.25;95.64
67457;BME280;54319;52.038;4.640;2022-09-17T05:22:22;101578.34;;;9.23;95.73
67457;BME280;54319;52.038;4.640;2022-09-17T05:24:50;101583.53;;;9.20;95.83
67457;BME280;54319;52.038;4.640;2022-09-17T05:27:16;101587.91;;;9.16;96.13
67457;BME280;54319;52.038;4.640;2022-09-17T05:29:43;101607.94;;;9.17;96.25
67457;BME280;54319;52.038;4.640;2022-09-17T05:32:10;101605.34;;;9.16;96.72
67457;BME280;54319;52.038;4.640;2022-09-17T05:34:37;101604.44;;;9.15;97.31
67457;BME280;54319;52.038;4.640;2022-09-17T05:37:04;101600.06;;;9.13;97.37
67457;BME280;54319;52.038;4.640;2022-09-17T05:39:33;101607.06;;;9.15;97.39
67457;BME280;54319;52.038;4.640;2022-09-17T05:42:00;101611.44;;;9.19;97.93
67457;BME280;54319;52.038;4.640;2022-09-17T05:44:27;101601.91;;;9.24;98.27
67457;BME280;54319;52.038;4.640;2022-09-17T05:46:54;101608.91;;;9.32;98.70
67457;BME280;54319;52.038;4.640;2022-09-17T05:49:21;101605.47;;;9.39;99.20
67457;BME280;54319;52.038;4.640;2022-09-17T05:51:49;101598.53;;;9.47;98.93
67457;BME280;54319;52.038;4.640;2022-09-17T05:54:16;101595.97;;;9.53;98.73
67457;BME280;54319;52.038;4.640;2022-09-17T05:56:44;101595.97;;;9.59;99.32
67457;BME280;54319;52.038;4.640;2022-09-17T05:59:11;101594.28;;;9.64;99.81
67457;BME280;54319;52.038;4.640;2022-09-17T06:01:39;101600.41;;;9.71;100.00
67457;BME280;54319;52.038;4.640;2022-09-17T06:04:08;101613.53;;;9.80;100.00
67457;BME280;54319;52.038;4.640;2022-09-17T06:06:36;101651.97;;;9.86;99.68
67457;BME280;54319;52.038;4.640;2022-09-17T06:09:03;101646.72;;;9.84;97.15
67457;BME280;54319;52.038;4.640;2022-09-17T06:11:30;101631.81;;;9.74;97.60
67457;BME280;54319;52.038;4.640;2022-09-17T06:13:58;101626.56;;;9.66;98.09
67457;BME280;54319;52.038;4.640;2022-09-17T06:16:28;101618.63;;;9.57;97.98
67457;BME280;54319;52.038;4.640;2022-09-17T06:18:55;101614.25;;;9.50;98.33
67457;BME280;54319;52.038;4.640;2022-09-17T06:21:22;101613.34;;;9.45;98.25
67457;BME280;54319;52.038;4.640;2022-09-17T06:23:48;101611.59;;;9.44;98.38
67457;BME280;54319;52.038;4.640;2022-09-17T06:26:16;101615.97;;;9.45;98.18
67457;BME280;54319;52.038;4.640;2022-09-17T06:28:43;101625.56;;;9.47;97.59
67457;BME280;54319;52.038;4.640;2022-09-17T06:31:12;101633.47;;;9.54;97.37
67457;BME280;54319;52.038;4.640;2022-09-17T06:33:39;101632.63;;;9.61;96.31
67457;BME280;54319;52.038;4.640;2022-09-17T06:36:07;101630.91;;;9.64;95.58
67457;BME280;54319;52.038;4.640;2022-09-17T06:38:35;101644.00;;;9.67;95.49
67457;BME280;54319;52.038;4.640;2022-09-17T06:41:03;101655.34;;;9.73;96.29
67457;BME280;54319;52.038;4.640;2022-09-17T06:43:30;101641.41;;;9.74;97.07
67457;BME280;54319;52.038;4.640;2022-09-17T06:45:58;101640.56;;;9.73;97.13
67457;BME280;54319;52.038;4.640;2022-09-17T06:48:29;101635.31;;;9.75;97.48
67457;BME280;54319;52.038;4.640;2022-09-17T06:51:00;101640.59;;;9.82;96.76
67457;BME280;54319;52.038;4.640;2022-09-17T06:53:28;101638.84;;;9.84;96.77
67457;BME280;54319;52.038;4.640;2022-09-17T06:55:55;101638.88;;;9.89;97.19
67457;BME280;54319;52.038;4.640;2022-09-17T06:58:22;101631.91;;;9.96;96.98
67457;BME280;54319;52.038;4.640;2022-09-17T07:00:51;101635.44;;;10.07;96.51
67457;BME280;54319;52.038;4.640;2022-09-17T07:03:18;101642.50;;;10.25;96.20
67457;BME280;54319;52.038;4.640;2022-09-17T07:05:52;101628.59;;;10.43;94.50
67457;BME280;54319;52.038;4.640;2022-09-17T07:08:19;101632.13;;;10.60;94.28
67457;BME280;54319;52.038;4.640;2022-09-17T07:10:46;101629.53;;;10.77;94.26
67457;BME280;54319;52.038;4.640;2022-09-17T07:13:13;101619.06;;;10.96;93.20
67457;BME280;54319;52.038;4.640;2022-09-17T07:15:40;101628.66;;;11.10;92.53
67457;BME280;54319;52.038;4.640;2022-09-17T07:18:07;101636.50;;;11.21;92.96
67457;BME280;54319;52.038;4.640;2022-09-17T07:20:35;101634.78;;;11.26;91.33
67457;BME280;54319;52.038;4.640;2022-09-17T07:23:04;101639.13;;;11.27;90.25
67457;BME280;54319;52.038;4.640;2022-09-17T07:25:31;101629.50;;;11.35;89.87
67457;BME280;54319;52.038;4.640;2022-09-17T07:27:58;101634.59;;;11.94;87.97
67457;BME280;54319;52.038;4.640;2022-09-17T07:30:25;101630.63;;;12.76;81.46
67457;BME280;54319;52.038;4.640;2022-09-17T07:32:52;101637.13;;;14.15;74.82
67457;BME280;54319;52.038;4.640;2022-09-17T07:35:19;101629.81;;;15.44;68.08
67457;BME280;54319;52.038;4.640;2022-09-17T07:37:47;101632.03;;;16.51;65.01
67457;BME280;54319;52.038;4.640;2022-09-17T07:40:16;101631.16;;;17.22;59.86
67457;BME280;54319;52.038;4.640;2022-09-17T07:42:44;101637.72;;;17.73;56.09
67457;BME280;54319;52.038;4.640;2022-09-17T07:45:11;101635.59;;;17.22;57.33
67457;BME280;54319;52.038;4.640;2022-09-17T07:47:40;101636.63;;;16.41;58.14
67457;BME280;54319;52.038;4.640;2022-09-17T07:50:08;101651.59;;;15.57;63.52
67457;BME280;54319;52.038;4.640;2022-09-17T07:52:35;101652.94;;;14.77;67.69
67457;BME280;54319;52.038;4.640;2022-09-17T07:55:03;101652.34;;;13.90;72.47
67457;BME280;54319;52.038;4.640;2022-09-17T07:57:31;101653.00;;;13.28;76.17
67457;BME280;54319;52.038;4.640;2022-09-17T07:59:58;101650.81;;;12.74;78.63
67457;BME280;54319;52.038;4.640;2022-09-17T08:02:25;101650.25;;;12.23;80.57
67457;BME280;54319;52.038;4.640;2022-09-17T08:04:53;101659.13;;;11.99;80.64
67457;BME280;54319;52.038;4.640;2022-09-17T08:07:19;101658.28;;;11.74;81.88
67457;BME280;54319;52.038;4.640;2022-09-17T08:09:47;101657.44;;;11.61;81.91
67457;BME280;54319;52.038;4.640;2022-09-17T08:12:14;101660.00;;;11.84;82.03
67457;BME280;54319;52.038;4.640;2022-09-17T08:14:43;101648.53;;;12.11;82.20
67457;BME280;54319;52.038;4.640;2022-09-17T08:17:10;101644.97;;;12.25;83.29
67457;BME280;54319;52.038;4.640;2022-09-17T08:19:37;101636.09;;;12.47;80.96
67457;BME280;54319;52.038;4.640;2022-09-17T08:22:04;101646.50;;;12.59;80.85
67457;BME280;54319;52.038;4.640;2022-09-17T08:24:31;101650.84;;;12.68;79.86
67457;BME280;54319;52.038;4.640;2022-09-17T08:26:57;101648.22;;;12.67;78.94
67457;BME280;54319;52.038;4.640;2022-09-17T08:29:25;101659.66;;;12.58;80.65
67457;BME280;54319;52.038;4.640;2022-09-17T08:31:55;101671.06;;;12.58;82.13
67457;BME280;54319;52.038;4.640;2022-09-17T08:34:22;101671.06;;;12.57;82.20
67457;BME280;54319;52.038;4.640;2022-09-17T08:36:49;101668.38;;;12.68;80.82
67457;BME280;54319;52.038;4.640;2022-09-17T08:39:16;101678.78;;;12.85;80.59
67457;BME280;54319;52.038;4.640;2022-09-17T08:41:49;101675.19;;;12.98;80.08
67457;BME280;54319;52.038;4.640;2022-09-17T08:44:29;101683.97;;;12.95;79.78
67457;BME280;54319;52.038;4.640;2022-09-17T08:47:01;101670.94;;;12.77;80.26
67457;BME280;54319;52.038;4.640;2022-09-17T08:49:35;101667.53;;;12.63;79.17
67457;BME280;54319;52.038;4.640;2022-09-17T08:52:35;101661.53;;;12.39;80.41
67457;BME280;54319;52.038;4.640;2022-09-17T08:55:19;101655.41;;;12.38;80.89
67457;BME280;54319;52.038;4.640;2022-09-17T08:57:59;101657.94;;;12.55;79.72
67457;BME280;54319;52.038;4.640;2022-09-17T09:00:34;101656.97;;;12.72;79.28
67457;BME280;54319;52.038;4.640;2022-09-17T09:03:17;101663.88;;;12.82;77.86
67457;BME280;54319;52.038;4.640;2022-09-17T09:05:51;101658.38;;;13.13;79.76
67457;BME280;54319;52.038;4.640;2022-09-17T09:08:24;101667.72;;;13.48;79.77
67457;BME280;54319;52.038;4.640;2022-09-17T09:10:56;101664.81;;;13.75;78.56
67457;BME280;54319;52.038;4.640;2022-09-17T09:13:27;101687.50;;;13.87;77.76
67457;BME280;54319;52.038;4.640;2022-09-17T09:15:58;101685.25;;;13.55;77.11
67457;BME280;54319;52.038;4.640;2022-09-17T09:18:30;101681.09;;;13.21;79.00
67457;BME280;54319;52.038;4.640;2022-09-17T09:21:09;101680.47;;;12.93;78.05
67457;BME280;54319;52.038;4.640;2022-09-17T09:23:46;101685.88;;;12.70;76.90
67457;BME280;54319;52.038;4.640;2022-09-17T09:26:19;101685.09;;;12.61;78.38
67457;BME280;54319;52.038;4.640;2022-09-17T09:28:57;101683.34;;;12.53;79.44
67457;BME280;54319;52.038;4.640;2022-09-17T09:31:37;101685.94;;;12.63;81.63
67457;BME280;54319;52.038;4.640;2022-09-17T09:34:11;101682.34;;;12.76;83.39
67457;BME280;54319;52.038;4.640;2022-09-17T09:36:39;101675.28;;;12.83;81.87
67457;BME280;54319;52.038;4.640;2022-09-17T09:39:14;101689.31;;;12.85;81.32
67457;BME280;54319;52.038;4.640;2022-09-17T09:41:53;101691.94;;;12.83;82.28
67457;BME280;54319;52.038;4.640;2022-09-17T09:44:24;101688.44;;;12.81;82.95
67457;BME280;54319;52.038;4.640;2022-09-17T09:47:13;101689.28;;;12.89;84.42
67457;BME280;54319;52.038;4.640;2022-09-17T09:50:01;101680.47;;;12.92;84.40
67457;BME280;54319;52.038;4.640;2022-09-17T09:52:42;101670.81;;;12.94;85.17
67457;BME280;54319;52.038;4.640;2022-09-17T09:55:22;101664.63;;;13.01;85.14
67457;BME280;54319;52.038;4.640;2022-09-17T09:58:02;101664.41;;;13.27;84.69
67457;BME280;54319;52.038;4.640;2022-09-17T10:00:35;101654.47;;;13.60;83.75
67457;BME280;54319;52.038;4.640;2022-09-17T10:03:10;101649.66;;;13.96;82.47
67457;BME280;54319;52.038;4.640;2022-09-17T10:05:52;101658.94;;;14.26;79.63
67457;BME280;54319;52.038;4.640;2022-09-17T10:08:20;101708.94;;;14.34;77.84
67457;BME280;54319;52.038;4.640;2022-09-17T10:10:54;101686.47;;;14.03;78.37
67457;BME280;54319;52.038;4.640;2022-09-17T10:13:21;101683.25;;;13.75;78.56
67457;BME280;54319;52.038;4.640;2022-09-17T10:15:48;101680.91;;;13.48;81.45
67457;BME280;54319;52.038;4.640;2022-09-17T10:18:17;101683.66;;;13.35;82.17
67457;BME280;54319;52.038;4.640;2022-09-17T10:20:53;101680.19;;;13.27;84.20
67457;BME280;54319;52.038;4.640;2022-09-17T10:23:22;101678.31;;;13.43;85.39
67457;BME280;54319;52.038;4.640;2022-09-17T10:25:51;101671.81;;;13.76;83.46
67457;BME280;54319;52.038;4.640;2022-09-17T10:28:36;101676.84;;;14.01;78.04
67457;BME280;54319;52.038;4.640;2022-09-17T10:31:07;101693.41;;;14.09;77.78
67457;BME280;54319;52.038;4.640;2022-09-17T10:36:41;101659.50;;;13.81;72.25
67457;BME280;54319;52.038;4.640;2022-09-17T10:39:36;101659.63;;;13.68;74.00
67457;BME280;54319;52.038;4.640;2022-09-17T10:42:15;101665.69;;;13.77;72.21
67457;BME280;54319;52.038;4.640;2022-09-17T10:44:50;101669.91;;;13.92;72.05
67457;BME280;54319;52.038;4.640;2022-09-17T10:47:23;101680.34;;;14.01;73.91
67457;BME280;54319;52.038;4.640;2022-09-17T10:49:55;101667.03;;;14.12;72.40
67457;BME280;54319;52.038;4.640;2022-09-17T10:52:29;101664.31;;;14.17;75.35
67457;BME280;54319;52.038;4.640;2022-09-17T10:55:06;101668.81;;;14.09;73.85
67457;BME280;54319;52.038;4.640;2022-09-17T10:57:48;101658.06;;;14.27;73.65
67457;BME280;54319;52.038;4.640;2022-09-17T11:00:21;101663.81;;;14.55;74.99
67457;BME280;54319;52.038;4.640;2022-09-17T11:06:20;101652.06;;;15.31;70.35
67457;BME280;54319;52.038;4.640;2022-09-17T11:09:01;101652.50;;;15.54;67.16
67457;BME280;54319;52.038;4.640;2022-09-17T11:11:38;101657.69;;;15.59;63.29
67457;BME280;54319;52.038;4.640;2022-09-17T11:14:14;101658.72;;;15.52;61.01
67457;BME280;54319;52.038;4.640;2022-09-17T11:16:56;101657.81;;;15.53;57.20
67457;BME280;54319;52.038;4.640;2022-09-17T11:19:35;101652.28;;;15.65;55.66
67457;BME280;54319;52.038;4.640;2022-09-17T11:22:09;101647.47;;;15.87;55.04
67457;BME280;54319;52.038;4.640;2022-09-17T11:25:04;101647.22;;;16.01;55.55
67457;BME280;54319;52.038;4.640;2022-09-17T11:27:43;101650.13;;;16.29;54.45
67457;BME280;54319;52.038;4.640;2022-09-17T11:30:15;101640.72;;;16.56;55.99
67457;BME280;54319;52.038;4.640;2022-09-17T11:33:01;101661.16;;;16.48;55.32
67457;BME280;54319;52.038;4.640;2022-09-17T11:35:33;101654.00;;;16.14;56.28
67457;BME280;54319;52.038;4.640;2022-09-17T11:38:05;101660.13;;;15.73;56.10
67457;BME280;54319;52.038;4.640;2022-09-17T11:40:40;101658.59;;;15.58;56.10
67457;BME280;54319;52.038;4.640;2022-09-17T11:43:17;101661.81;;;15.75;52.85
67457;BME280;54319;52.038;4.640;2022-09-17T11:45:56;101657.25;;;15.83;52.88
67457;BME280;54319;52.038;4.640;2022-09-17T11:48:31;101657.06;;;15.93;51.24
67457;BME280;54319;52.038;4.640;2022-09-17T11:51:03;101651.66;;;15.99;51.16
67457;BME280;54319;52.038;4.640;2022-09-17T11:53:36;101648.81;;;16.09;49.31
67457;BME280;54319;52.038;4.640;2022-09-17T11:56:14;101659.88;;;16.27;48.91
67457;BME280;54319;52.038;4.640;2022-09-17T11:58:46;101641.84;;;16.44;51.79
67457;BME280;54319;52.038;4.640;2022-09-17T12:01:17;101662.09;;;16.47;50.29
67457;BME280;54319;52.038;4.640;2022-09-17T12:03:50;101640.81;;;16.52;48.83
67457;BME280;54319;52.038;4.640;2022-09-17T12:06:22;101655.00;;;16.47;48.95
67457;BME280;54319;52.038;4.640;2022-09-17T12:08:58;101650.56;;;16.49;49.47
67457;BME280;54319;52.038;4.640;2022-09-17T12:11:32;101661.75;;;16.62;49.69
67457;BME280;54319;52.038;4.640;2022-09-17T12:14:03;101653.72;;;16.65;49.19
67457;BME280;54319;52.038;4.640;2022-09-17T12:16:35;101657.53;;;16.54;48.59
67457;BME280;54319;52.038;4.640;2022-09-17T12:19:14;101647.59;;;16.63;50.46
67457;BME280;54319;52.038;4.640;2022-09-17T12:21:50;101651.88;;;16.69;48.29
67457;BME280;54319;52.038;4.640;2022-09-17T12:24:21;101651.94;;;16.66;47.91
67457;BME280;54319;52.038;4.640;2022-09-17T12:27:00;101655.19;;;16.77;47.94
67457;BME280;54319;52.038;4.640;2022-09-17T12:29:44;101656.88;;;16.81;49.23
67457;BME280;54319;52.038;4.640;2022-09-17T12:32:44;101663.97;;;16.81;45.25
67457;BME280;54319;52.038;4.640;2022-09-17T12:35:22;101657.94;;;16.73;45.12
67457;BME280;54319;52.038;4.640;2022-09-17T12:38:04;101665.94;;;16.71;47.07
67457;BME280;54319;52.038;4.640;2022-09-17T12:40:37;101662.16;;;16.83;47.34
67457;BME280;54319;52.038;4.640;2022-09-17T12:43:25;101666.50;;;16.85;48.73
67457;BME280;54319;52.038;4.640;2022-09-17T12:46:06;101647.81;;;16.91;46.83
67457;BME280;54319;52.038;4.640;2022-09-17T12:48:48;101661.09;;;16.90;46.86
67457;BME280;54319;52.038;4.640;2022-09-17T12:51:38;101660.25;;;16.88;47.23
67457;BME280;54319;52.038;4.640;2022-09-17T12:54:22;101656.59;;;16.94;49.21
67457;BME280;54319;52.038;4.640;2022-09-17T12:56:59;101652.25;;;16.91;47.36
67457;BME280;54319;52.038;4.640;2022-09-17T12:59:33;101657.44;;;16.96;46.01
67457;BME280;54319;52.038;4.640;2022-09-17T13:02:03;101657.03;;;17.13;47.38
67457;BME280;54319;52.038;4.640;2022-09-17T13:07:56;101661.59;;;17.40;47.26
67457;BME280;54319;52.038;4.640;2022-09-17T13:10:49;101652.31;;;17.24;48.53
67457;BME280;54319;52.038;4.640;2022-09-17T13:13:31;101650.94;;;17.43;48.69
67457;BME280;54319;52.038;4.640;2022-09-17T13:16:08;101651.31;;;17.61;48.76
67457;BME280;54319;52.038;4.640;2022-09-17T13:18:40;101650.69;;;17.51;48.72
67457;BME280;54319;52.038;4.640;2022-09-17T13:21:15;101649.41;;;17.66;50.69
67457;BME280;54319;52.038;4.640;2022-09-17T13:23:44;101664.66;;;17.58;53.21
67457;BME280;54319;52.038;4.640;2022-09-17T13:26:15;101660.53;;;17.13;54.36
67457;BME280;54319;52.038;4.640;2022-09-17T13:28:45;101657.34;;;16.61;56.64
67457;BME280;54319;52.038;4.640;2022-09-17T13:31:20;101661.69;;;16.25;57.50